sensor_id;sensor_type;location;lat;lon;timestamp;P1;durP1;ratioP1;P2;durP2;ratioP2
10605;SDS011;5350;42.698;23.148;2024-03-08T00:01:59;2.70;;;2.37;;
10605;SDS011;5350;42.698;23.148;2024-03-08T00:04:27;2.97;;;2.03;;
10605;SDS011;5350;42.698;23.148;2024-03-08T00:06:55;2.07;;;1.87;;
10605;SDS011;5350;42.698;23.148;2024-03-08T00:09:22;3.40;;;1.97;;
10605;SDS011;5350;42.698;23.148;2024-03-08T00:11:49;2.50;;;2.03;;
10605;SDS011;5350;42.698;23.148;2024-03-08T00:14:17;2.20;;;2.00;;
10605;SDS011;5350;42.698;23.148;2024-03-08T00:16:44;3.90;;;2.23;;
10605;SDS011;5350;42.698;23.148;2024-03-08T00:19:10;2.10;;;1.90;;
10605;SDS011;5350;42.698;23.148;2024-03-08T00:21:37;2.30;;;2.10;;
10605;SDS011;5350;42.698;23.148;2024-03-08T00:24:05;2.37;;;1.90;;
10605;SDS011;5350;42.698;23.148;2024-03-08T00:26:32;2.83;;;2.50;;
10605;SDS011;5350;42.698;23.148;2024-03-08T00:28:59;2.77;;;2.27;;
10605;SDS011;5350;42.698;23.148;2024-03-08T00:31:26;1.83;;;1.73;;
10605;SDS011;5350;42.698;23.148;2024-03-08T00:33:53;1.83;;;1.67;;
10605;SDS011;5350;42.698;23.148;2024-03-08T00:36:19;2.47;;;1.80;;
10605;SDS011;5350;42.698;23.148;2024-03-08T00:38:46;2.43;;;2.23;;
10605;SDS011;5350;42.698;23.148;2024-03-08T00:41:14;2.33;;;2.00;;
10605;SDS011;5350;42.698;23.148;2024-03-08T00:43:41;4.10;;;2.17;;
10605;SDS011;5350;42.698;23.148;2024-03-08T00:46:08;2.80;;;2.40;;
10605;SDS011;5350;42.698;23.148;2024-03-08T00:48:35;4.03;;;2.70;;
10605;SDS011;5350;42.698;23.148;2024-03-08T00:51:01;1.90;;;1.67;;
10605;SDS011;5350;42.698;23.148;2024-03-08T00:53:29;3.20;;;1.73;;
10605;SDS011;5350;42.698;23.148;2024-03-08T00:55:56;2.10;;;1.53;;
10605;SDS011;5350;42.698;23.148;2024-03-08T00:58:24;1.57;;;1.40;;
10605;SDS011;5350;42.698;23.148;2024-03-08T01:00:50;1.90;;;1.80;;
10605;SDS011;5350;42.698;23.148;2024-03-08T01:03:17;2.90;;;2.17;;
10605;SDS011;5350;42.698;23.148;2024-03-08T01:05:44;2.37;;;2.13;;
10605;SDS011;5350;42.698;23.148;2024-03-08T01:08:11;3.70;;;2.70;;
10605;SDS011;5350;42.698;23.148;2024-03-08T01:10:38;4.27;;;3.83;;
10605;SDS011;5350;42.698;23.148;2024-03-08T01:13:05;7.23;;;3.23;;
10605;SDS011;5350;42.698;23.148;2024-03-08T01:15:33;3.60;;;3.00;;
10605;SDS011;5350;42.698;23.148;2024-03-08T01:17:59;2.90;;;2.60;;
10605;SDS011;5350;42.698;23.148;2024-03-08T01:20:26;3.17;;;2.50;;
10605;SDS011;5350;42.698;23.148;2024-03-08T01:22:53;3.10;;;2.63;;
10605;SDS011;5350;42.698;23.148;2024-03-08T01:25:20;2.53;;;2.33;;
10605;SDS011;5350;42.698;23.148;2024-03-08T01:27:47;2.20;;;2.00;;
10605;SDS011;5350;42.698;23.148;2024-03-08T01:30:14;2.43;;;1.83;;
10605;SDS011;5350;42.698;23.148;2024-03-08T01:32:43;1.40;;;1.30;;
10605;SDS011;5350;42.698;23.148;2024-03-08T01:35:10;1.60;;;1.50;;
10605;SDS011;5350;42.698;23.148;2024-03-08T01:37:37;2.27;;;1.60;;
10605;SDS011;5350;42.698;23.148;2024-03-08T01:40:04;1.57;;;1.33;;
10605;SDS011;5350;42.698;23.148;2024-03-08T01:42:33;2.20;;;1.30;;
10605;SDS011;5350;42.698;23.148;2024-03-08T01:45:03;1.40;;;1.30;;
10605;SDS011;5350;42.698;23.148;2024-03-08T01:47:30;2.43;;;1.97;;
10605;SDS011;5350;42.698;23.148;2024-03-08T01:49:59;1.30;;;1.20;;
10605;SDS011;5350;42.698;23.148;2024-03-08T01:52:28;1.37;;;1.27;;
10605;SDS011;5350;42.698;23.148;2024-03-08T01:54:56;1.67;;;1.30;;
10605;SDS011;5350;42.698;23.148;2024-03-08T01:57:25;1.20;;;1.10;;
10605;SDS011;5350;42.698;23.148;2024-03-08T01:59:53;1.40;;;1.30;;
10605;SDS011;5350;42.698;23.148;2024-03-08T02:02:21;1.80;;;1.50;;
10605;SDS011;5350;42.698;23.148;2024-03-08T02:04:48;2.83;;;1.70;;
10605;SDS011;5350;42.698;23.148;2024-03-08T02:07:19;1.33;;;1.23;;
10605;SDS011;5350;42.698;23.148;2024-03-08T02:09:47;1.90;;;1.70;;
10605;SDS011;5350;42.698;23.148;2024-03-08T02:12:13;1.50;;;1.40;;
10605;SDS011;5350;42.698;23.148;2024-03-08T02:14:40;1.27;;;1.17;;
10605;SDS011;5350;42.698;23.148;2024-03-08T02:17:08;1.40;;;1.30;;
10605;SDS011;5350;42.698;23.148;2024-03-08T02:19:37;1.10;;;1.10;;
10605;SDS011;5350;42.698;23.148;2024-03-08T02:22:05;1.30;;;1.20;;
10605;SDS011;5350;42.698;23.148;2024-03-08T02:24:32;0.83;;;0.83;;
10605;SDS011;5350;42.698;23.148;2024-03-08T02:26:59;1.30;;;1.20;;
10605;SDS011;5350;42.698;23.148;2024-03-08T02:29:26;1.00;;;1.00;;
10605;SDS011;5350;42.698;23.148;2024-03-08T02:31:54;1.80;;;1.70;;
10605;SDS011;5350;42.698;23.148;2024-03-08T02:34:20;2.20;;;1.97;;
10605;SDS011;5350;42.698;23.148;2024-03-08T02:36:47;2.80;;;1.67;;
10605;SDS011;5350;42.698;23.148;2024-03-08T02:39:15;1.50;;;1.40;;
10605;SDS011;5350;42.698;23.148;2024-03-08T02:41:44;1.13;;;1.00;;
10605;SDS011;5350;42.698;23.148;2024-03-08T02:44:11;1.13;;;1.07;;
10605;SDS011;5350;42.698;23.148;2024-03-08T02:46:38;0.90;;;0.83;;
10605;SDS011;5350;42.698;23.148;2024-03-08T02:49:05;1.50;;;1.17;;
10605;SDS011;5350;42.698;23.148;2024-03-08T02:51:33;1.80;;;1.70;;
10605;SDS011;5350;42.698;23.148;2024-03-08T02:54:00;1.40;;;1.30;;
10605;SDS011;5350;42.698;23.148;2024-03-08T02:56:30;2.37;;;1.30;;
10605;SDS011;5350;42.698;23.148;2024-03-08T02:59:00;2.13;;;1.10;;
10605;SDS011;5350;42.698;23.148;2024-03-08T03:01:26;7.93;;;5.53;;
10605;SDS011;5350;42.698;23.148;2024-03-08T03:03:53;19.07;;;12.10;;
10605;SDS011;5350;42.698;23.148;2024-03-08T03:06:20;14.13;;;8.43;;
10605;SDS011;5350;42.698;23.148;2024-03-08T03:08:47;13.40;;;9.00;;
10605;SDS011;5350;42.698;23.148;2024-03-08T03:11:14;5.37;;;3.90;;
10605;SDS011;5350;42.698;23.148;2024-03-08T03:13:42;10.00;;;6.67;;
10605;SDS011;5350;42.698;23.148;2024-03-08T03:16:16;3.70;;;2.80;;
10605;SDS011;5350;42.698;23.148;2024-03-08T03:18:43;2.07;;;1.73;;
10605;SDS011;5350;42.698;23.148;2024-03-08T03:21:10;1.43;;;1.33;;
10605;SDS011;5350;42.698;23.148;2024-03-08T03:23:38;1.97;;;1.37;;
10605;SDS011;5350;42.698;23.148;2024-03-08T03:26:06;1.50;;;1.40;;
10605;SDS011;5350;42.698;23.148;2024-03-08T03:28:33;2.20;;;1.20;;
10605;SDS011;5350;42.698;23.148;2024-03-08T03:31:01;1.23;;;1.13;;
10605;SDS011;5350;42.698;23.148;2024-03-08T03:33:27;1.50;;;1.20;;
10605;SDS011;5350;42.698;23.148;2024-03-08T03:35:54;1.30;;;1.20;;
10605;SDS011;5350;42.698;23.148;2024-03-08T03:38:21;1.57;;;1.10;;
10605;SDS011;5350;42.698;23.148;2024-03-08T03:40:48;1.50;;;1.40;;
10605;SDS011;5350;42.698;23.148;2024-03-08T03:43:17;1.00;;;1.00;;
10605;SDS011;5350;42.698;23.148;2024-03-08T03:45:44;1.40;;;1.17;;
10605;SDS011;5350;42.698;23.148;2024-03-08T03:48:12;1.40;;;1.30;;
10605;SDS011;5350;42.698;23.148;2024-03-08T03:50:39;1.50;;;1.40;;
10605;SDS011;5350;42.698;23.148;2024-03-08T03:53:06;2.00;;;1.60;;
10605;SDS011;5350;42.698;23.148;2024-03-08T03:55:33;1.73;;;1.63;;
10605;SDS011;5350;42.698;23.148;2024-03-08T03:58:00;2.97;;;1.80;;
10605;SDS011;5350;42.698;23.148;2024-03-08T04:00:27;2.57;;;2.20;;
10605;SDS011;5350;42.698;23.148;2024-03-08T04:02:53;2.30;;;2.10;;
10605;SDS011;5350;42.698;23.148;2024-03-08T04:05:25;3.20;;;1.93;;
10605;SDS011;5350;42.698;23.148;2024-03-08T04:07:52;1.97;;;1.77;;
10605;SDS011;5350;42.698;23.148;2024-03-08T04:10:19;2.43;;;1.80;;
10605;SDS011;5350;42.698;23.148;2024-03-08T04:12:45;1.93;;;1.47;;
10605;SDS011;5350;42.698;23.148;2024-03-08T04:15:12;1.80;;;1.60;;
10605;SDS011;5350;42.698;23.148;2024-03-08T04:17:39;1.80;;;1.70;;
10605;SDS011;5350;42.698;23.148;2024-03-08T04:20:06;1.73;;;1.63;;
10605;SDS011;5350;42.698;23.148;2024-03-08T04:22:36;2.33;;;1.80;;
10605;SDS011;5350;42.698;23.148;2024-03-08T04:25:04;3.30;;;2.00;;
10605;SDS011;5350;42.698;23.148;2024-03-08T04:27:31;3.03;;;2.20;;
10605;SDS011;5350;42.698;23.148;2024-03-08T04:29:59;1.63;;;1.53;;
10605;SDS011;5350;42.698;23.148;2024-03-08T04:32:26;2.33;;;1.90;;
10605;SDS011;5350;42.698;23.148;2024-03-08T04:34:54;4.93;;;2.37;;
10605;SDS011;5350;42.698;23.148;2024-03-08T04:37:21;3.70;;;2.57;;
10605;SDS011;5350;42.698;23.148;2024-03-08T04:39:50;3.17;;;2.13;;
10605;SDS011;5350;42.698;23.148;2024-03-08T04:42:17;3.13;;;2.33;;
10605;SDS011;5350;42.698;23.148;2024-03-08T04:44:43;2.70;;;2.00;;
10605;SDS011;5350;42.698;23.148;2024-03-08T04:47:10;1.80;;;1.60;;
10605;SDS011;5350;42.698;23.148;2024-03-08T04:49:38;1.80;;;1.40;;
10605;SDS011;5350;42.698;23.148;2024-03-08T04:52:05;2.63;;;1.50;;
10605;SDS011;5350;42.698;23.148;2024-03-08T04:54:32;1.17;;;1.07;;
10605;SDS011;5350;42.698;23.148;2024-03-08T04:57:00;2.50;;;1.30;;
10605;SDS011;5350;42.698;23.148;2024-03-08T04:59:27;2.63;;;1.20;;
10605;SDS011;5350;42.698;23.148;2024-03-08T05:01:54;2.37;;;1.00;;
10605;SDS011;5350;42.698;23.148;2024-03-08T05:04:21;1.33;;;0.93;;
10605;SDS011;5350;42.698;23.148;2024-03-08T05:06:48;2.87;;;2.10;;
10605;SDS011;5350;42.698;23.148;2024-03-08T05:09:15;3.27;;;1.97;;
10605;SDS011;5350;42.698;23.148;2024-03-08T05:11:42;2.27;;;1.90;;
10605;SDS011;5350;42.698;23.148;2024-03-08T05:14:11;2.43;;;1.80;;
10605;SDS011;5350;42.698;23.148;2024-03-08T05:16:41;1.90;;;1.20;;
10605;SDS011;5350;42.698;23.148;2024-03-08T05:19:08;2.90;;;1.30;;
10605;SDS011;5350;42.698;23.148;2024-03-08T05:21:35;1.43;;;1.33;;
10605;SDS011;5350;42.698;23.148;2024-03-08T05:24:01;1.93;;;1.60;;
10605;SDS011;5350;42.698;23.148;2024-03-08T05:26:29;1.57;;;1.40;;
10605;SDS011;5350;42.698;23.148;2024-03-08T05:28:58;1.50;;;1.40;;
10605;SDS011;5350;42.698;23.148;2024-03-08T05:31:26;2.13;;;1.33;;
10605;SDS011;5350;42.698;23.148;2024-03-08T05:33:53;1.80;;;1.53;;
10605;SDS011;5350;42.698;23.148;2024-03-08T05:36:20;1.73;;;1.63;;
10605;SDS011;5350;42.698;23.148;2024-03-08T05:38:47;1.20;;;1.10;;
10605;SDS011;5350;42.698;23.148;2024-03-08T05:41:15;1.70;;;1.50;;
10605;SDS011;5350;42.698;23.148;2024-03-08T05:43:42;2.00;;;1.67;;
10605;SDS011;5350;42.698;23.148;2024-03-08T05:46:09;1.57;;;1.47;;
10605;SDS011;5350;42.698;23.148;2024-03-08T05:48:38;2.37;;;1.80;;
10605;SDS011;5350;42.698;23.148;2024-03-08T05:51:04;1.93;;;1.77;;
10605;SDS011;5350;42.698;23.148;2024-03-08T05:53:31;3.10;;;2.20;;
10605;SDS011;5350;42.698;23.148;2024-03-08T05:55:58;2.60;;;2.30;;
10605;SDS011;5350;42.698;23.148;2024-03-08T05:58:27;5.47;;;2.27;;
10605;SDS011;5350;42.698;23.148;2024-03-08T06:00:55;3.93;;;2.93;;
10605;SDS011;5350;42.698;23.148;2024-03-08T06:03:21;4.73;;;3.20;;
10605;SDS011;5350;42.698;23.148;2024-03-08T06:05:50;9.80;;;5.43;;
10605;SDS011;5350;42.698;23.148;2024-03-08T06:08:16;17.40;;;9.07;;
10605;SDS011;5350;42.698;23.148;2024-03-08T06:10:44;7.57;;;5.33;;
10605;SDS011;5350;42.698;23.148;2024-03-08T06:13:11;5.50;;;3.30;;
10605;SDS011;5350;42.698;23.148;2024-03-08T06:15:38;3.00;;;2.00;;
10605;SDS011;5350;42.698;23.148;2024-03-08T06:18:04;2.87;;;2.33;;
10605;SDS011;5350;42.698;23.148;2024-03-08T06:20:35;3.40;;;2.63;;
10605;SDS011;5350;42.698;23.148;2024-03-08T06:23:04;3.90;;;2.83;;
10605;SDS011;5350;42.698;23.148;2024-03-08T06:25:30;4.77;;;3.03;;
10605;SDS011;5350;42.698;23.148;2024-03-08T06:27:57;5.33;;;2.70;;
10605;SDS011;5350;42.698;23.148;2024-03-08T06:30:24;6.30;;;5.67;;
10605;SDS011;5350;42.698;23.148;2024-03-08T06:32:50;5.73;;;2.73;;
10605;SDS011;5350;42.698;23.148;2024-03-08T06:35:17;13.03;;;6.07;;
10605;SDS011;5350;42.698;23.148;2024-03-08T06:37:45;21.27;;;7.43;;
10605;SDS011;5350;42.698;23.148;2024-03-08T06:40:13;16.47;;;6.93;;
10605;SDS011;5350;42.698;23.148;2024-03-08T06:42:40;11.43;;;5.70;;
10605;SDS011;5350;42.698;23.148;2024-03-08T06:45:08;5.53;;;3.83;;
10605;SDS011;5350;42.698;23.148;2024-03-08T06:47:35;4.83;;;3.30;;
10605;SDS011;5350;42.698;23.148;2024-03-08T06:50:02;3.90;;;3.27;;
10605;SDS011;5350;42.698;23.148;2024-03-08T06:52:30;4.70;;;3.27;;
10605;SDS011;5350;42.698;23.148;2024-03-08T06:54:57;4.77;;;3.80;;
10605;SDS011;5350;42.698;23.148;2024-03-08T06:57:28;6.67;;;3.73;;
10605;SDS011;5350;42.698;23.148;2024-03-08T06:59:54;5.07;;;3.70;;
10605;SDS011;5350;42.698;23.148;2024-03-08T07:02:22;5.37;;;3.70;;
10605;SDS011;5350;42.698;23.148;2024-03-08T07:04:49;4.70;;;3.63;;
10605;SDS011;5350;42.698;23.148;2024-03-08T07:07:16;5.33;;;3.47;;
10605;SDS011;5350;42.698;23.148;2024-03-08T07:09:45;5.47;;;3.63;;
10605;SDS011;5350;42.698;23.148;2024-03-08T07:12:12;4.70;;;3.70;;
10605;SDS011;5350;42.698;23.148;2024-03-08T07:14:41;5.07;;;3.80;;
10605;SDS011;5350;42.698;23.148;2024-03-08T07:17:10;5.37;;;4.20;;
10605;SDS011;5350;42.698;23.148;2024-03-08T07:19:37;5.83;;;4.50;;
10605;SDS011;5350;42.698;23.148;2024-03-08T07:22:04;5.40;;;4.43;;
10605;SDS011;5350;42.698;23.148;2024-03-08T07:24:33;5.93;;;4.20;;
10605;SDS011;5350;42.698;23.148;2024-03-08T07:27:15;6.17;;;4.30;;
10605;SDS011;5350;42.698;23.148;2024-03-08T07:29:43;5.70;;;4.30;;
10605;SDS011;5350;42.698;23.148;2024-03-08T07:32:11;5.53;;;4.30;;
10605;SDS011;5350;42.698;23.148;2024-03-08T07:34:46;5.97;;;4.20;;
10605;SDS011;5350;42.698;23.148;2024-03-08T07:37:13;7.33;;;4.73;;
10605;SDS011;5350;42.698;23.148;2024-03-08T07:39:40;6.70;;;4.47;;
10605;SDS011;5350;42.698;23.148;2024-03-08T07:42:07;7.47;;;4.10;;
10605;SDS011;5350;42.698;23.148;2024-03-08T07:44:33;6.53;;;4.57;;
10605;SDS011;5350;42.698;23.148;2024-03-08T07:47:01;7.87;;;4.83;;
10605;SDS011;5350;42.698;23.148;2024-03-08T07:49:29;7.83;;;5.07;;
10605;SDS011;5350;42.698;23.148;2024-03-08T07:51:55;8.80;;;5.20;;
10605;SDS011;5350;42.698;23.148;2024-03-08T07:54:23;8.97;;;6.70;;
10605;SDS011;5350;42.698;23.148;2024-03-08T07:56:51;7.37;;;5.57;;
10605;SDS011;5350;42.698;23.148;2024-03-08T07:59:17;8.17;;;4.97;;
10605;SDS011;5350;42.698;23.148;2024-03-08T08:01:44;5.77;;;4.97;;
10605;SDS011;5350;42.698;23.148;2024-03-08T08:04:13;6.47;;;4.63;;
10605;SDS011;5350;42.698;23.148;2024-03-08T08:06:43;6.97;;;5.20;;
10605;SDS011;5350;42.698;23.148;2024-03-08T08:09:09;6.47;;;4.93;;
10605;SDS011;5350;42.698;23.148;2024-03-08T08:11:39;6.57;;;5.50;;
10605;SDS011;5350;42.698;23.148;2024-03-08T08:14:08;6.40;;;4.43;;
10605;SDS011;5350;42.698;23.148;2024-03-08T08:16:35;5.97;;;4.73;;
10605;SDS011;5350;42.698;23.148;2024-03-08T08:19:02;5.30;;;4.67;;
10605;SDS011;5350;42.698;23.148;2024-03-08T08:21:34;6.63;;;3.37;;
10605;SDS011;5350;42.698;23.148;2024-03-08T08:24:02;6.00;;;4.03;;
10605;SDS011;5350;42.698;23.148;2024-03-08T08:26:28;4.77;;;3.87;;
10605;SDS011;5350;42.698;23.148;2024-03-08T08:28:55;5.40;;;4.07;;
10605;SDS011;5350;42.698;23.148;2024-03-08T08:31:22;3.47;;;2.93;;
10605;SDS011;5350;42.698;23.148;2024-03-08T08:33:49;2.70;;;2.27;;
10605;SDS011;5350;42.698;23.148;2024-03-08T08:36:19;3.73;;;2.80;;
10605;SDS011;5350;42.698;23.148;2024-03-08T08:38:47;4.40;;;2.60;;
10605;SDS011;5350;42.698;23.148;2024-03-08T08:41:13;3.13;;;2.83;;
10605;SDS011;5350;42.698;23.148;2024-03-08T08:43:42;4.13;;;3.07;;
10605;SDS011;5350;42.698;23.148;2024-03-08T08:46:09;4.53;;;2.40;;
10605;SDS011;5350;42.698;23.148;2024-03-08T08:48:38;2.40;;;1.97;;
10605;SDS011;5350;42.698;23.148;2024-03-08T08:51:06;2.73;;;2.23;;
10605;SDS011;5350;42.698;23.148;2024-03-08T08:53:37;3.33;;;2.47;;
10605;SDS011;5350;42.698;23.148;2024-03-08T08:56:07;2.87;;;2.47;;
10605;SDS011;5350;42.698;23.148;2024-03-08T08:58:34;3.47;;;2.30;;
10605;SDS011;5350;42.698;23.148;2024-03-08T09:01:00;3.70;;;2.47;;
10605;SDS011;5350;42.698;23.148;2024-03-08T09:03:27;2.23;;;2.03;;
10605;SDS011;5350;42.698;23.148;2024-03-08T09:05:54;2.63;;;1.87;;
10605;SDS011;5350;42.698;23.148;2024-03-08T09:08:21;3.23;;;2.27;;
10605;SDS011;5350;42.698;23.148;2024-03-08T09:10:48;4.40;;;2.80;;
10605;SDS011;5350;42.698;23.148;2024-03-08T09:13:16;3.67;;;2.83;;
10605;SDS011;5350;42.698;23.148;2024-03-08T09:15:43;5.53;;;2.83;;
10605;SDS011;5350;42.698;23.148;2024-03-08T09:18:10;3.10;;;2.40;;
10605;SDS011;5350;42.698;23.148;2024-03-08T09:20:37;3.97;;;2.60;;
10605;SDS011;5350;42.698;23.148;2024-03-08T09:23:06;2.83;;;2.13;;
10605;SDS011;5350;42.698;23.148;2024-03-08T09:25:33;2.83;;;2.23;;
10605;SDS011;5350;42.698;23.148;2024-03-08T09:28:00;2.83;;;2.40;;
10605;SDS011;5350;42.698;23.148;2024-03-08T09:30:28;3.67;;;2.00;;
10605;SDS011;5350;42.698;23.148;2024-03-08T09:32:55;2.73;;;2.30;;
10605;SDS011;5350;42.698;23.148;2024-03-08T09:35:22;4.30;;;2.80;;
10605;SDS011;5350;42.698;23.148;2024-03-08T09:37:48;2.60;;;2.03;;
10605;SDS011;5350;42.698;23.148;2024-03-08T09:40:16;1.60;;;1.50;;
10605;SDS011;5350;42.698;23.148;2024-03-08T09:42:44;1.70;;;1.60;;
10605;SDS011;5350;42.698;23.148;2024-03-08T09:45:12;1.90;;;1.70;;
10605;SDS011;5350;42.698;23.148;2024-03-08T09:47:42;1.60;;;1.47;;
10605;SDS011;5350;42.698;23.148;2024-03-08T09:50:09;2.67;;;2.27;;
10605;SDS011;5350;42.698;23.148;2024-03-08T09:52:38;1.67;;;1.57;;
10605;SDS011;5350;42.698;23.148;2024-03-08T09:55:05;1.20;;;1.10;;
10605;SDS011;5350;42.698;23.148;2024-03-08T09:57:33;3.83;;;1.73;;
10605;SDS011;5350;42.698;23.148;2024-03-08T10:00:02;1.23;;;1.13;;
10605;SDS011;5350;42.698;23.148;2024-03-08T10:02:33;3.80;;;1.93;;
10605;SDS011;5350;42.698;23.148;2024-03-08T10:05:02;2.97;;;1.80;;
10605;SDS011;5350;42.698;23.148;2024-03-08T10:07:29;2.47;;;1.77;;
10605;SDS011;5350;42.698;23.148;2024-03-08T10:09:56;1.70;;;1.60;;
10605;SDS011;5350;42.698;23.148;2024-03-08T10:12:23;2.50;;;1.97;;
10605;SDS011;5350;42.698;23.148;2024-03-08T10:14:50;1.83;;;1.70;;
10605;SDS011;5350;42.698;23.148;2024-03-08T10:17:17;3.80;;;1.80;;
10605;SDS011;5350;42.698;23.148;2024-03-08T10:19:52;4.10;;;2.00;;
10605;SDS011;5350;42.698;23.148;2024-03-08T10:22:20;2.70;;;2.30;;
10605;SDS011;5350;42.698;23.148;2024-03-08T10:24:46;2.60;;;1.90;;
10605;SDS011;5350;42.698;23.148;2024-03-08T10:27:14;2.80;;;1.73;;
10605;SDS011;5350;42.698;23.148;2024-03-08T10:29:43;2.23;;;2.00;;
10605;SDS011;5350;42.698;23.148;2024-03-08T10:32:13;4.80;;;2.60;;
10605;SDS011;5350;42.698;23.148;2024-03-08T10:34:40;1.70;;;1.60;;
10605;SDS011;5350;42.698;23.148;2024-03-08T10:37:07;3.80;;;2.37;;
10605;SDS011;5350;42.698;23.148;2024-03-08T10:39:44;2.70;;;2.03;;
10605;SDS011;5350;42.698;23.148;2024-03-08T10:42:19;5.20;;;2.30;;
10605;SDS011;5350;42.698;23.148;2024-03-08T10:44:57;1.80;;;1.60;;
10605;SDS011;5350;42.698;23.148;2024-03-08T10:47:33;3.00;;;2.10;;
10605;SDS011;5350;42.698;23.148;2024-03-08T10:50:08;2.20;;;2.00;;
10605;SDS011;5350;42.698;23.148;2024-03-08T10:52:45;4.97;;;2.43;;
10605;SDS011;5350;42.698;23.148;2024-03-08T10:55:17;5.67;;;3.20;;
10605;SDS011;5350;42.698;23.148;2024-03-08T10:57:45;2.40;;;2.20;;
10605;SDS011;5350;42.698;23.148;2024-03-08T11:00:13;4.93;;;2.27;;
10605;SDS011;5350;42.698;23.148;2024-03-08T11:02:43;3.00;;;1.70;;
10605;SDS011;5350;42.698;23.148;2024-03-08T11:05:10;2.37;;;1.50;;
10605;SDS011;5350;42.698;23.148;2024-03-08T11:07:41;2.10;;;1.20;;
10605;SDS011;5350;42.698;23.148;2024-03-08T11:10:19;1.57;;;1.40;;
10605;SDS011;5350;42.698;23.148;2024-03-08T11:12:46;1.13;;;1.00;;
10605;SDS011;5350;42.698;23.148;2024-03-08T11:15:13;2.00;;;1.30;;
10605;SDS011;5350;42.698;23.148;2024-03-08T11:17:47;1.63;;;1.10;;
10605;SDS011;5350;42.698;23.148;2024-03-08T11:20:14;1.10;;;0.80;;
10605;SDS011;5350;42.698;23.148;2024-03-08T11:22:47;0.70;;;0.70;;
10605;SDS011;5350;42.698;23.148;2024-03-08T11:25:33;1.10;;;0.85;;
10605;SDS011;5350;42.698;23.148;2024-03-08T11:28:10;1.17;;;0.90;;
10605;SDS011;5350;42.698;23.148;2024-03-08T11:30:43;2.57;;;1.20;;
10605;SDS011;5350;42.698;23.148;2024-03-08T11:33:12;1.10;;;0.90;;
10605;SDS011;5350;42.698;23.148;2024-03-08T11:35:39;1.77;;;1.20;;
10605;SDS011;5350;42.698;23.148;2024-03-08T11:38:10;2.17;;;1.37;;
10605;SDS011;5350;42.698;23.148;2024-03-08T11:40:40;0.90;;;0.90;;
10605;SDS011;5350;42.698;23.148;2024-03-08T11:43:08;0.80;;;0.80;;
10605;SDS011;5350;42.698;23.148;2024-03-08T11:45:35;1.40;;;1.30;;
10605;SDS011;5350;42.698;23.148;2024-03-08T11:48:02;1.13;;;1.08;;
10605;SDS011;5350;42.698;23.148;2024-03-08T11:50:30;1.95;;;1.10;;
10605;SDS011;5350;42.698;23.148;2024-03-08T11:53:00;0.82;;;0.80;;
10605;SDS011;5350;42.698;23.148;2024-03-08T11:55:28;2.38;;;0.90;;
10605;SDS011;5350;42.698;23.148;2024-03-08T11:58:00;0.80;;;0.80;;
10605;SDS011;5350;42.698;23.148;2024-03-08T12:00:28;1.40;;;1.13;;
10605;SDS011;5350;42.698;23.148;2024-03-08T12:03:04;2.60;;;0.80;;
10605;SDS011;5350;42.698;23.148;2024-03-08T12:05:32;2.00;;;1.00;;
10605;SDS011;5350;42.698;23.148;2024-03-08T12:07:59;3.75;;;1.00;;
10605;SDS011;5350;42.698;23.148;2024-03-08T12:10:27;0.93;;;0.93;;
10605;SDS011;5350;42.698;23.148;2024-03-08T12:12:56;2.10;;;1.48;;
10605;SDS011;5350;42.698;23.148;2024-03-08T12:15:27;1.40;;;1.30;;
10605;SDS011;5350;42.698;23.148;2024-03-08T12:17:55;2.03;;;1.88;;
10605;SDS011;5350;42.698;23.148;2024-03-08T12:20:23;4.72;;;3.13;;
10605;SDS011;5350;42.698;23.148;2024-03-08T12:22:51;1.25;;;1.15;;
10605;SDS011;5350;42.698;23.148;2024-03-08T12:25:21;0.93;;;0.80;;
10605;SDS011;5350;42.698;23.148;2024-03-08T12:27:48;2.53;;;1.80;;
10605;SDS011;5350;42.698;23.148;2024-03-08T12:30:18;0.60;;;0.60;;
10605;SDS011;5350;42.698;23.148;2024-03-08T12:32:52;0.80;;;0.57;;
10605;SDS011;5350;42.698;23.148;2024-03-08T12:35:21;1.08;;;0.73;;
10605;SDS011;5350;42.698;23.148;2024-03-08T12:37:50;0.40;;;0.40;;
10605;SDS011;5350;42.698;23.148;2024-03-08T12:40:18;0.98;;;0.88;;
10605;SDS011;5350;42.698;23.148;2024-03-08T12:42:46;1.67;;;0.95;;
10605;SDS011;5350;42.698;23.148;2024-03-08T12:45:13;0.82;;;0.82;;
10605;SDS011;5350;42.698;23.148;2024-03-08T12:47:40;1.23;;;0.80;;
10605;SDS011;5350;42.698;23.148;2024-03-08T12:50:10;1.25;;;1.15;;
10605;SDS011;5350;42.698;23.148;2024-03-08T12:52:37;1.00;;;0.95;;
10605;SDS011;5350;42.698;23.148;2024-03-08T12:55:04;1.75;;;1.40;;
10605;SDS011;5350;42.698;23.148;2024-03-08T12:57:33;1.58;;;1.23;;
10605;SDS011;5350;42.698;23.148;2024-03-08T13:00:01;15.10;;;10.93;;
10605;SDS011;5350;42.698;23.148;2024-03-08T13:02:29;44.40;;;30.92;;
10605;SDS011;5350;42.698;23.148;2024-03-08T13:04:57;48.83;;;34.65;;
10605;SDS011;5350;42.698;23.148;2024-03-08T13:07:25;11.38;;;8.43;;
10605;SDS011;5350;42.698;23.148;2024-03-08T13:09:52;4.20;;;2.30;;
10605;SDS011;5350;42.698;23.148;2024-03-08T13:12:20;2.08;;;1.98;;
10605;SDS011;5350;42.698;23.148;2024-03-08T13:14:49;1.50;;;1.00;;
10605;SDS011;5350;42.698;23.148;2024-03-08T13:17:16;3.45;;;1.20;;
10605;SDS011;5350;42.698;23.148;2024-03-08T13:19:43;1.25;;;1.15;;
10605;SDS011;5350;42.698;23.148;2024-03-08T13:22:10;1.95;;;1.10;;
10605;SDS011;5350;42.698;23.148;2024-03-08T13:24:39;0.90;;;0.90;;
10605;SDS011;5350;42.698;23.148;2024-03-08T13:27:07;1.00;;;0.90;;
10605;SDS011;5350;42.698;23.148;2024-03-08T13:29:44;1.30;;;1.20;;
10605;SDS011;5350;42.698;23.148;2024-03-08T13:32:13;1.57;;;1.47;;
10605;SDS011;5350;42.698;23.148;2024-03-08T13:34:40;2.40;;;2.20;;
10605;SDS011;5350;42.698;23.148;2024-03-08T13:37:07;2.43;;;2.23;;
10605;SDS011;5350;42.698;23.148;2024-03-08T13:39:35;3.73;;;2.27;;
10605;SDS011;5350;42.698;23.148;2024-03-08T13:42:07;1.47;;;1.10;;
10605;SDS011;5350;42.698;23.148;2024-03-08T13:44:35;2.27;;;1.90;;
10605;SDS011;5350;42.698;23.148;2024-03-08T13:47:02;3.37;;;2.07;;
10605;SDS011;5350;42.698;23.148;2024-03-08T13:49:30;3.50;;;2.40;;
10605;SDS011;5350;42.698;23.148;2024-03-08T13:51:58;1.57;;;1.47;;
10605;SDS011;5350;42.698;23.148;2024-03-08T13:54:25;1.40;;;1.30;;
10605;SDS011;5350;42.698;23.148;2024-03-08T13:56:55;1.53;;;1.00;;
10605;SDS011;5350;42.698;23.148;2024-03-08T13:59:23;2.67;;;1.63;;
10605;SDS011;5350;42.698;23.148;2024-03-08T14:01:54;1.37;;;1.27;;
10605;SDS011;5350;42.698;23.148;2024-03-08T14:04:21;1.37;;;1.27;;
10605;SDS011;5350;42.698;23.148;2024-03-08T14:06:49;1.43;;;1.13;;
10605;SDS011;5350;42.698;23.148;2024-03-08T14:09:16;1.40;;;1.27;;
10605;SDS011;5350;42.698;23.148;2024-03-08T14:11:44;5.83;;;3.30;;
10605;SDS011;5350;42.698;23.148;2024-03-08T14:14:10;11.07;;;6.17;;
10605;SDS011;5350;42.698;23.148;2024-03-08T14:16:39;7.33;;;4.93;;
10605;SDS011;5350;42.698;23.148;2024-03-08T14:19:06;9.37;;;5.60;;
10605;SDS011;5350;42.698;23.148;2024-03-08T14:21:35;12.60;;;7.47;;
10605;SDS011;5350;42.698;23.148;2024-03-08T14:24:04;3.73;;;2.20;;
10605;SDS011;5350;42.698;23.148;2024-03-08T14:26:31;4.63;;;3.07;;
10605;SDS011;5350;42.698;23.148;2024-03-08T14:28:59;19.83;;;9.53;;
10605;SDS011;5350;42.698;23.148;2024-03-08T14:31:26;7.40;;;3.30;;
10605;SDS011;5350;42.698;23.148;2024-03-08T14:33:54;17.50;;;8.10;;
10605;SDS011;5350;42.698;23.148;2024-03-08T14:36:22;2.70;;;1.63;;
10605;SDS011;5350;42.698;23.148;2024-03-08T14:38:50;13.47;;;6.00;;
10605;SDS011;5350;42.698;23.148;2024-03-08T14:41:17;18.30;;;8.57;;
10605;SDS011;5350;42.698;23.148;2024-03-08T14:43:44;10.80;;;5.20;;
10605;SDS011;5350;42.698;23.148;2024-03-08T14:46:12;16.27;;;9.17;;
10605;SDS011;5350;42.698;23.148;2024-03-08T14:48:45;15.67;;;8.67;;
10605;SDS011;5350;42.698;23.148;2024-03-08T14:51:13;6.93;;;3.97;;